createdAt,value
2018-06-27T11:25:51.976Z,20.60
2018-06-27T11:28:21.254Z,27.00
2018-06-27T11:30:49.806Z,27.00
2018-06-27T11:33:18.566Z,27.10
2018-06-27T11:35:46.974Z,26.90
2018-06-27T11:38:15.395Z,27.00
2018-06-27T11:40:43.874Z,27.30
2018-06-27T11:43:12.621Z,27.40
2018-06-27T11:45:40.991Z,27.70
2018-06-27T11:48:09.469Z,27.80
2018-06-27T11:50:37.801Z,27.90
2018-06-27T11:53:06.266Z,28.10
2018-06-27T11:55:34.717Z,28.10
2018-06-27T11:58:03.234Z,28.30
2018-06-27T12:00:31.749Z,28.40
2018-06-27T12:03:00.279Z,28.50
2018-06-27T12:05:28.903Z,28.30
2018-06-27T12:07:57.609Z,27.90
2018-06-27T12:10:26.033Z,27.70
2018-06-27T12:12:54.449Z,27.60
2018-06-27T12:15:22.878Z,27.60
2018-06-27T12:17:51.326Z,27.60
2018-06-27T12:20:19.727Z,27.50
2018-06-27T12:22:48.124Z,27.50
2018-06-27T12:25:16.606Z,27.40
2018-06-27T12:27:45.110Z,27.30
2018-06-27T12:30:24.394Z,27.40
2018-06-27T12:32:53.223Z,27.30
2018-06-27T12:35:22.322Z,27.40
2018-06-27T12:37:51.235Z,27.60
2018-06-27T12:40:19.656Z,27.80
2018-06-27T12:42:48.168Z,28.00
2018-06-27T12:45:16.564Z,28.00
2018-06-27T12:47:44.912Z,28.10
2018-06-27T12:50:13.413Z,28.20
2018-06-27T12:52:41.849Z,28.20
2018-06-27T12:55:13.007Z,28.00
2018-06-27T13:00:11.429Z,27.20
2018-06-27T13:02:39.797Z,26.80
2018-06-27T13:07:37.084Z,26.90
2018-06-27T13:10:07.485Z,26.90
2018-06-27T13:12:35.914Z,26.90
2018-06-27T13:15:04.757Z,26.80
2018-06-27T13:17:33.419Z,26.90
2018-06-27T13:20:01.968Z,26.60
2018-06-27T13:22:31.150Z,26.50
2018-06-27T13:24:59.812Z,26.40
2018-06-27T13:27:28.602Z,26.70
2018-06-27T13:29:57.018Z,26.90
2018-06-27T13:32:25.572Z,26.80
2018-06-27T13:34:54.104Z,26.90
2018-06-27T13:37:22.461Z,26.80
2018-06-27T13:39:51.159Z,26.90
2018-06-27T13:42:19.534Z,26.90
2018-06-27T13:44:48.328Z,27.00
2018-06-27T13:47:16.730Z,26.80
2018-06-27T13:49:45.201Z,26.70
2018-06-27T13:52:13.648Z,26.60
2018-06-27T13:54:44.101Z,26.20
2018-06-27T13:57:13.225Z,26.00
2018-06-27T13:59:41.658Z,26.10
2018-06-27T14:02:10.261Z,26.40
2018-06-27T14:04:45.663Z,26.80
2018-06-27T14:07:14.039Z,27.00
2018-06-27T14:09:42.560Z,26.90
2018-06-27T14:12:11.297Z,26.90
2018-06-27T14:14:40.066Z,26.80
2018-06-27T14:17:08.638Z,26.60
2018-06-27T14:19:37.043Z,26.60
2018-06-27T14:22:05.893Z,26.40
2018-06-27T14:24:34.360Z,26.60
2018-06-27T14:27:02.874Z,26.70
2018-06-27T14:29:31.410Z,26.60
2018-06-27T14:31:59.835Z,26.30
2018-06-27T14:34:28.259Z,26.20
2018-06-27T14:36:56.717Z,26.00
2018-06-27T14:39:25.288Z,25.70
2018-06-27T14:41:53.805Z,25.60
2018-06-27T14:44:22.360Z,25.60
2018-06-27T14:46:50.951Z,25.70
2018-06-27T14:49:19.380Z,25.70
2018-06-27T14:51:47.915Z,25.50
2018-06-27T14:54:16.323Z,25.40
2018-06-27T14:56:44.748Z,25.60
2018-06-27T14:59:13.371Z,25.70
2018-06-27T15:01:41.777Z,25.90
2018-06-27T15:04:10.469Z,26.10
2018-06-27T15:06:38.895Z,26.40
2018-06-27T15:09:08.807Z,27.00
2018-06-27T15:11:37.396Z,27.60
2018-06-27T15:14:05.851Z,27.90
2018-06-27T15:16:34.519Z,28.00
2018-06-27T15:19:03.013Z,28.00
2018-06-27T15:21:31.452Z,28.00
2018-06-27T15:24:00.019Z,27.80
2018-06-27T15:26:28.536Z,27.70
2018-06-27T15:28:56.992Z,27.50
2018-06-27T15:31:25.529Z,27.60
2018-06-27T15:33:54.241Z,27.70
2018-06-27T15:36:22.654Z,27.80
2018-06-27T15:38:51.032Z,28.10
2018-06-27T15:41:19.412Z,28.50
2018-06-27T15:43:47.785Z,28.70
2018-06-27T15:46:16.250Z,28.30
2018-06-27T15:48:44.616Z,27.60
2018-06-27T15:51:13.400Z,27.20
2018-06-27T15:53:41.872Z,27.10
2018-06-27T15:56:10.536Z,27.00
2018-06-27T15:58:39.153Z,27.00
2018-06-27T16:01:07.638Z,26.90
2018-06-27T16:03:36.103Z,26.80
2018-06-27T16:06:04.669Z,26.80
2018-06-27T16:08:33.342Z,26.50
2018-06-27T16:11:01.783Z,26.30
2018-06-27T16:13:30.141Z,26.20
2018-06-27T16:15:58.577Z,26.20
2018-06-27T16:18:26.993Z,26.30
2018-06-27T16:20:55.522Z,26.30
2018-06-27T16:23:23.899Z,26.20
2018-06-27T16:25:52.436Z,26.20
2018-06-27T16:28:20.895Z,26.10
2018-06-27T16:30:49.324Z,26.10
2018-06-27T16:33:17.779Z,26.10
2018-06-27T16:35:46.378Z,26.10
2018-06-27T16:38:14.696Z,26.10
2018-06-27T16:40:43.220Z,26.10
2018-06-27T16:43:11.752Z,26.20
2018-06-27T16:45:40.183Z,26.10
2018-06-27T16:48:08.665Z,26.20
2018-06-27T16:50:37.228Z,26.20
2018-06-27T16:53:06.073Z,26.10
2018-06-27T16:58:02.910Z,25.90
2018-06-27T17:00:31.324Z,25.80
2018-06-27T17:02:59.700Z,25.70
2018-06-27T17:05:28.166Z,25.70
2018-06-27T17:07:56.585Z,25.60
2018-06-27T17:10:25.030Z,25.50
2018-06-27T17:12:53.443Z,25.50
2018-06-27T17:15:22.062Z,25.40
2018-06-27T17:17:50.471Z,25.30
2018-06-27T17:20:18.865Z,25.20
2018-06-27T17:22:47.360Z,25.10
2018-06-27T17:29:32.071Z,24.90
2018-06-27T17:32:00.724Z,24.70
2018-06-27T17:34:29.243Z,24.70
2018-06-27T17:36:58.312Z,24.70
2018-06-27T17:39:27.327Z,24.70
2018-06-27T17:41:56.149Z,24.70
2018-06-27T17:44:32.247Z,24.60
2018-06-27T17:58:38.259Z,24.80
2018-06-27T18:01:06.592Z,24.70
2018-06-27T18:03:35.193Z,24.80
2018-06-27T18:06:03.684Z,24.90
2018-06-27T18:08:32.077Z,24.90
2018-06-27T18:11:00.548Z,24.90
2018-06-27T18:13:29.012Z,24.80
2018-06-27T18:15:57.600Z,24.80
2018-06-27T18:18:26.264Z,24.80
2018-06-27T18:20:54.667Z,24.80
2018-06-27T18:23:23.157Z,24.90
2018-06-27T18:25:51.840Z,24.70
2018-06-27T18:28:20.330Z,24.70
2018-06-27T18:30:48.858Z,24.60
2018-06-27T18:33:17.279Z,24.50
2018-06-27T18:35:45.793Z,24.30
2018-06-27T18:38:14.246Z,24.20
2018-06-27T18:40:42.775Z,24.10
2018-06-27T18:43:11.211Z,24.00
2018-06-27T18:45:39.766Z,24.00
2018-06-27T18:48:08.503Z,23.90
2018-06-27T18:50:36.856Z,23.80
2018-06-27T18:53:05.321Z,23.70
2018-06-27T18:55:33.723Z,23.70
2018-06-27T18:58:02.144Z,23.60
2018-06-27T19:00:30.727Z,23.50
2018-06-27T19:02:59.162Z,23.40
2018-06-27T19:05:27.529Z,23.40
2018-06-27T19:07:55.988Z,23.30
2018-06-27T19:10:24.401Z,23.20
2018-06-27T19:12:52.883Z,23.10
2018-06-27T19:15:21.241Z,23.00
2018-06-27T19:17:49.648Z,23.00
2018-06-27T19:20:18.041Z,22.80
2018-06-27T19:22:46.499Z,22.70
2018-06-27T19:25:14.932Z,22.50
2018-06-27T19:27:43.428Z,22.30
2018-06-27T19:30:11.923Z,22.40
2018-06-27T19:32:40.443Z,22.20
2018-06-27T19:35:09.314Z,22.10
2018-06-27T19:37:37.757Z,21.80
2018-06-27T19:40:06.903Z,21.70
2018-06-27T19:42:35.302Z,21.60
2018-06-27T19:45:03.666Z,21.40
2018-06-27T19:47:32.044Z,21.30
2018-06-27T19:50:00.417Z,21.30
2018-06-27T19:52:28.896Z,21.10
2018-06-27T19:54:57.341Z,21.00
2018-06-27T19:57:25.785Z,20.90
2018-06-27T19:59:55.228Z,20.80
2018-06-27T20:02:23.695Z,20.70
2018-06-27T20:04:52.050Z,20.70
2018-06-27T20:07:20.556Z,20.60
2018-06-27T20:09:48.938Z,20.50
2018-06-27T20:12:17.370Z,20.40
2018-06-27T20:14:45.863Z,20.40
2018-06-27T20:17:14.319Z,20.20
2018-06-27T20:19:42.756Z,20.00
2018-06-27T20:22:11.297Z,20.00
2018-06-27T20:24:39.548Z,19.90
2018-06-27T20:27:08.017Z,19.70
2018-06-27T20:29:36.518Z,19.50
2018-06-27T20:32:04.986Z,19.50
2018-06-27T20:34:33.478Z,19.30
2018-06-27T20:37:01.822Z,19.30
2018-06-27T20:39:30.316Z,19.20
2018-06-27T20:41:58.744Z,19.00
2018-06-27T20:44:27.181Z,19.00
2018-06-27T20:46:55.719Z,18.90
2018-06-27T20:49:24.114Z,18.90
2018-06-27T20:51:52.536Z,18.70
2018-06-27T20:54:20.910Z,18.60
2018-06-27T20:56:49.470Z,18.60
2018-06-27T20:59:18.026Z,18.50
2018-06-27T21:01:46.488Z,18.40
2018-06-27T21:04:15.061Z,18.30
2018-06-27T21:06:43.660Z,18.20
2018-06-27T21:09:12.575Z,18.10
2018-06-27T21:11:40.954Z,18.00
2018-06-27T21:14:09.337Z,17.90
2018-06-27T21:16:37.866Z,17.90
2018-06-27T21:19:06.297Z,17.80
2018-06-27T21:21:34.635Z,17.70
2018-06-27T21:24:03.102Z,17.70
2018-06-27T21:26:31.661Z,17.60
2018-06-27T21:29:00.240Z,17.50
2018-06-27T21:31:28.825Z,17.40
2018-06-27T21:33:57.201Z,17.40
2018-06-27T21:36:25.597Z,17.40
2018-06-27T21:38:54.089Z,17.30
2018-06-27T21:41:22.475Z,17.20
2018-06-27T21:43:50.916Z,17.40
2018-06-27T21:46:19.393Z,17.30
2018-06-27T21:48:47.755Z,17.30
2018-06-27T21:51:16.178Z,17.30
2018-06-27T21:53:44.589Z,17.30
2018-06-27T21:56:12.993Z,17.30
2018-06-27T21:58:41.428Z,17.20
2018-06-27T22:01:09.945Z,17.10
2018-06-27T22:03:38.384Z,17.10
2018-06-27T22:06:06.835Z,16.90
2018-06-27T22:08:35.262Z,16.90
2018-06-27T22:11:03.766Z,17.00
2018-06-27T22:13:32.449Z,16.90
2018-06-27T22:16:00.875Z,16.90
2018-06-27T22:18:29.204Z,17.00
2018-06-27T22:23:25.614Z,17.10
2018-06-27T22:25:54.008Z,17.30
2018-06-27T22:28:22.412Z,17.30
2018-06-27T22:30:50.806Z,17.40
2018-06-27T22:33:19.227Z,17.50
2018-06-27T22:35:47.695Z,17.60
2018-06-27T22:38:16.151Z,17.70
2018-06-27T22:40:44.658Z,17.90
2018-06-27T22:43:13.032Z,18.10
2018-06-27T22:45:41.393Z,18.20
2018-06-27T22:48:09.832Z,18.30
2018-06-27T22:50:38.270Z,18.50
2018-06-27T22:53:06.733Z,18.70
2018-06-27T22:55:35.147Z,18.80
2018-06-27T22:58:03.830Z,18.90
2018-06-27T23:00:32.153Z,19.10
2018-06-27T23:03:00.492Z,19.20
2018-06-27T23:05:28.923Z,19.20
2018-06-27T23:07:57.263Z,19.30
2018-06-27T23:10:25.648Z,19.40
2018-06-27T23:12:54.084Z,19.40
2018-06-27T23:15:22.601Z,19.50
2018-06-27T23:17:51.061Z,19.40
2018-06-27T23:20:19.501Z,19.50
2018-06-27T23:22:48.955Z,19.50
2018-06-27T23:25:17.372Z,19.40
2018-06-27T23:27:46.127Z,19.40
2018-06-27T23:30:14.521Z,19.40
2018-06-27T23:32:42.974Z,19.30
2018-06-27T23:35:11.559Z,19.40
2018-06-27T23:37:40.709Z,19.40
2018-06-27T23:40:09.248Z,19.40
2018-06-27T23:42:37.978Z,19.40
2018-06-27T23:45:07.235Z,19.40
2018-06-27T23:47:35.681Z,19.40
2018-06-27T23:50:04.124Z,19.40
2018-06-27T23:52:32.504Z,19.40
2018-06-27T23:55:00.829Z,19.40
2018-06-27T23:57:29.269Z,19.40
2018-06-27T23:59:57.811Z,19.40
